Time,TemperatureF,DewpointF,PressureIn,WindDirection,WindDirectionDegrees,WindSpeedMPH,WindSpeedGustMPH,Humidity,HourlyPrecipIn,Conditions,Clouds,dailyrainin,SoftwareType,DateUTC
2013-01-04 00:03:00,29.2,22.0,30.50,SSE,167,0.0,0.0,75,0.00,,,0.00,weatherlink.com 1.10,2013-01-04 07:03:00,
2013-01-04 00:18:00,28.9,22.0,30.50,SSE,167,0.0,0.0,76,0.00,,,0.00,weatherlink.com 1.10,2013-01-04 07:18:00,
2013-01-04 00:33:00,28.9,22.0,30.50,SSE,167,0.0,0.0,76,0.00,,,0.00,weatherlink.com 1.10,2013-01-04 07:33:00,
2013-01-04 00:48:00,28.9,22.0,30.51,SSE,167,1.0,1.0,75,0.00,,,0.00,weatherlink.com 1.10,2013-01-04 07:48:00,
2013-01-04 01:03:00,29.0,22.0,30.51,SSE,167,0.0,2.0,75,0.00,,,0.00,weatherlink.com 1.10,2013-01-04 08:03:00,
2013-01-04 01:18:00,28.7,22.0,30.51,SSE,167,0.0,0.0,76,0.00,,,0.00,weatherlink.com 1.10,2013-01-04 08:18:00,
2013-01-04 01:33:00,28.6,22.0,30.51,SSE,167,0.0,0.0,76,0.00,,,0.00,weatherlink.com 1.10,2013-01-04 08:33:00,
2013-01-04 01:48:00,28.3,22.0,30.50,SSE,168,0.0,0.0,76,0.00,,,0.00,weatherlink.com 1.10,2013-01-04 08:48:00,
2013-01-04 02:03:00,27.9,22.0,30.50,SSE,168,0.0,0.0,77,0.00,,,0.00,weatherlink.com 1.10,2013-01-04 09:03:00,
2013-01-04 02:18:00,28.0,22.0,30.50,SSE,167,0.0,0.0,77,0.00,,,0.00,weatherlink.com 1.10,2013-01-04 09:18:00,
2013-01-04 02:33:00,28.2,22.0,30.50,SSE,167,0.0,0.0,76,0.00,,,0.00,weatherlink.com 1.10,2013-01-04 09:33:00,
2013-01-04 02:48:00,28.4,22.0,30.51,South,177,2.0,4.0,76,0.00,,,0.00,weatherlink.com 1.10,2013-01-04 09:48:00,
2013-01-04 03:03:00,28.0,22.0,30.51,South,187,0.0,3.0,77,0.00,,,0.00,weatherlink.com 1.10,2013-01-04 10:03:00,
2013-01-04 03:18:00,27.4,21.0,30.50,South,187,0.0,0.0,78,0.00,,,0.00,weatherlink.com 1.10,2013-01-04 10:18:00,
2013-01-04 03:33:00,27.0,22.0,30.51,South,188,0.0,0.0,80,0.00,,,0.00,weatherlink.com 1.10,2013-01-04 10:33:00,
2013-01-04 03:48:00,27.2,22.0,30.50,South,188,0.0,2.0,80,0.00,,,0.00,weatherlink.com 1.10,2013-01-04 10:48:00,
2013-01-04 04:03:00,27.5,22.0,30.50,South,189,1.0,2.0,79,0.00,,,0.00,weatherlink.com 1.10,2013-01-04 11:03:00,
2013-01-04 04:18:00,27.6,22.0,30.50,South,187,0.0,1.0,79,0.00,,,0.00,weatherlink.com 1.10,2013-01-04 11:18:00,
2013-01-04 04:33:00,27.6,22.0,30.50,South,188,1.0,1.0,79,0.00,,,0.00,weatherlink.com 1.10,2013-01-04 11:33:00,
2013-01-04 04:48:00,27.8,22.0,30.50,South,188,1.0,1.0,80,0.00,,,0.00,weatherlink.com 1.10,2013-01-04 11:48:00,
2013-01-04 05:03:00,28.2,22.0,30.50,South,189,0.0,1.0,79,0.00,,,0.00,weatherlink.com 1.10,2013-01-04 12:03:00,
2013-01-04 05:18:00,28.3,22.0,30.50,South,188,0.0,0.0,78,0.00,,,0.00,weatherlink.com 1.10,2013-01-04 12:18:00,
2013-01-04 05:33:00,28.2,22.0,30.50,South,189,0.0,0.0,78,0.00,,,0.00,weatherlink.com 1.10,2013-01-04 12:33:00,
2013-01-04 05:48:00,28.3,22.0,30.50,South,188,0.0,0.0,78,0.00,,,0.00,weatherlink.com 1.10,2013-01-04 12:48:00,
2013-01-04 06:03:00,28.5,22.0,30.50,South,188,0.0,1.0,77,0.00,,,0.00,weatherlink.com 1.10,2013-01-04 13:03:00,
2013-01-04 06:18:00,28.8,22.0,30.50,South,188,0.0,1.0,77,0.00,,,0.00,weatherlink.com 1.10,2013-01-04 13:18:00,
2013-01-04 06:33:00,29.3,23.0,30.50,South,188,0.0,2.0,77,0.00,,,0.00,weatherlink.com 1.10,2013-01-04 13:33:00,
2013-01-04 06:48:00,29.6,23.0,30.51,South,189,0.0,3.0,77,0.00,,,0.00,weatherlink.com 1.10,2013-01-04 13:48:00,
2013-01-04 07:03:00,29.4,23.0,30.51,South,187,1.0,2.0,78,0.00,,,0.00,weatherlink.com 1.10,2013-01-04 14:03:00,
2013-01-04 07:18:00,29.2,23.0,30.51,South,188,1.0,1.0,79,0.00,,,0.00,weatherlink.com 1.10,2013-01-04 14:18:00,
2013-01-04 07:33:00,29.4,24.0,30.51,South,188,0.0,1.0,80,0.00,,,0.00,weatherlink.com 1.10,2013-01-04 14:33:00,
2013-01-04 07:48:00,30.3,25.0,30.52,South,188,0.0,3.0,79,0.00,,,0.00,weatherlink.com 1.10,2013-01-04 14:48:00,
2013-01-04 08:03:00,31.7,26.0,30.52,South,188,2.0,4.0,79,0.00,,,0.00,weatherlink.com 1.10,2013-01-04 15:03:00,
2013-01-04 08:18:00,33.6,26.0,30.52,SSW,193,0.0,4.0,75,0.00,,,0.00,weatherlink.com 1.10,2013-01-04 15:18:00,
2013-01-04 08:34:00,34.7,27.0,30.53,SW,225,5.0,9.0,72,0.00,,,0.00,weatherlink.com 1.10,2013-01-04 15:34:00,
2013-01-04 08:49:00,35.8,27.0,30.53,SW,232,4.0,7.0,71,0.00,,,0.00,weatherlink.com 1.10,2013-01-04 15:49:00,
2013-01-04 09:04:00,37.2,28.0,30.53,WSW,246,6.0,10.0,69,0.00,,,0.00,weatherlink.com 1.10,2013-01-04 16:04:00,
2013-01-04 09:19:00,38.6,28.0,30.53,WSW,252,2.0,10.0,67,0.00,,,0.00,weatherlink.com 1.10,2013-01-04 16:19:00,
2013-01-04 09:34:00,40.4,29.0,30.52,West,270,2.0,15.0,63,0.00,,,0.00,weatherlink.com 1.10,2013-01-04 16:34:00,
2013-01-04 09:49:00,41.2,29.0,30.52,WSW,249,11.0,14.0,61,0.00,,,0.00,weatherlink.com 1.10,2013-01-04 16:49:00,
2013-01-04 10:04:00,42.2,29.0,30.52,WSW,239,5.0,15.0,60,0.00,,,0.00,weatherlink.com 1.10,2013-01-04 17:04:00,
2013-01-04 10:19:00,42.1,29.0,30.51,West,270,7.0,13.0,59,0.00,,,0.00,weatherlink.com 1.10,2013-01-04 17:19:00,
2013-01-04 10:34:00,42.4,28.0,30.51,WSW,258,13.0,15.0,58,0.00,,,0.00,weatherlink.com 1.10,2013-01-04 17:34:00,
2013-01-04 10:49:00,42.4,28.0,30.50,WSW,247,11.0,16.0,57,0.00,,,0.00,weatherlink.com 1.10,2013-01-04 17:49:00,
2013-01-04 11:04:00,42.6,28.0,30.49,WSW,258,8.0,14.0,57,0.00,,,0.00,weatherlink.com 1.10,2013-01-04 18:04:00,
2013-01-04 11:19:00,42.5,28.0,30.48,West,262,10.0,15.0,57,0.00,,,0.00,weatherlink.com 1.10,2013-01-04 18:19:00,
2013-01-04 11:34:00,42.7,27.0,30.47,SSW,204,5.0,13.0,55,0.00,,,0.00,weatherlink.com 1.10,2013-01-04 18:34:00,
2013-01-04 11:49:00,42.6,27.0,30.46,SW,227,6.0,14.0,55,0.00,,,0.00,weatherlink.com 1.10,2013-01-04 18:49:00,
2013-01-04 12:04:00,42.9,27.0,30.46,SSW,210,7.0,13.0,54,0.00,,,0.00,weatherlink.com 1.10,2013-01-04 19:04:00,
2013-01-04 12:19:00,43.0,28.0,30.45,SSW,200,6.0,13.0,55,0.00,,,0.00,weatherlink.com 1.10,2013-01-04 19:19:00,
2013-01-04 12:34:00,43.4,28.0,30.44,SSW,201,7.0,15.0,55,0.00,,,0.00,weatherlink.com 1.10,2013-01-04 19:34:00,
2013-01-04 12:49:00,43.7,28.0,30.42,SSW,210,9.0,13.0,55,0.00,,,0.00,weatherlink.com 1.10,2013-01-04 19:49:00,
2013-01-04 13:04:00,43.8,28.0,30.42,SW,216,12.0,15.0,54,0.00,,,0.00,weatherlink.com 1.10,2013-01-04 20:04:00,
2013-01-04 13:19:00,43.5,28.0,30.41,SSW,204,4.0,13.0,54,0.00,,,0.00,weatherlink.com 1.10,2013-01-04 20:19:00,
2013-01-04 13:34:00,43.7,28.0,30.40,SSW,206,7.0,15.0,55,0.00,,,0.00,weatherlink.com 1.10,2013-01-04 20:34:00,
2013-01-04 13:49:00,43.6,29.0,30.40,SSW,203,8.0,14.0,56,0.00,,,0.00,weatherlink.com 1.10,2013-01-04 20:49:00,
2013-01-04 14:04:00,43.5,29.0,30.39,South,177,8.0,15.0,56,0.00,,,0.00,weatherlink.com 1.10,2013-01-04 21:04:00,
2013-01-04 14:19:00,43.3,29.0,30.39,SSW,199,9.0,14.0,58,0.00,,,0.00,weatherlink.com 1.10,2013-01-04 21:19:00,
2013-01-04 14:34:00,43.0,29.0,30.39,SSW,201,2.0,12.0,59,0.00,,,0.00,weatherlink.com 1.10,2013-01-04 21:34:00,
2013-01-04 14:50:00,42.8,30.0,30.39,South,181,3.0,11.0,61,0.00,,,0.00,weatherlink.com 1.10,2013-01-04 21:50:00,
2013-01-04 15:08:00,42.5,30.0,30.39,SSW,197,2.0,12.0,61,0.00,,,0.00,weatherlink.com 1.10,2013-01-04 22:08:00,
2013-01-04 15:20:00,42.5,30.0,30.39,SSW,197,7.0,12.0,62,0.00,,,0.00,weatherlink.com 1.10,2013-01-04 22:20:00,
2013-01-04 15:35:00,42.4,30.0,30.39,SSW,192,3.0,9.0,63,0.00,,,0.00,weatherlink.com 1.10,2013-01-04 22:35:00,
2013-01-04 15:50:00,42.3,30.0,30.39,South,191,7.0,12.0,63,0.00,,,0.00,weatherlink.com 1.10,2013-01-04 22:50:00,
2013-01-04 16:05:00,42.2,30.0,30.39,SSW,193,3.0,9.0,63,0.00,,,0.00,weatherlink.com 1.10,2013-01-04 23:05:00,
2013-01-04 16:20:00,42.0,31.0,30.38,SSW,201,6.0,7.0,64,0.00,,,0.00,weatherlink.com 1.10,2013-01-04 23:20:00,
2013-01-04 16:35:00,41.9,30.0,30.38,SSW,192,3.0,7.0,64,0.00,,,0.00,weatherlink.com 1.10,2013-01-04 23:35:00,
2013-01-04 16:50:00,41.6,31.0,30.38,SSW,198,1.0,6.0,65,0.00,,,0.00,weatherlink.com 1.10,2013-01-04 23:50:00,
2013-01-04 17:05:00,41.3,31.0,30.38,South,186,1.0,4.0,66,0.00,,,0.00,weatherlink.com 1.10,2013-01-05 00:05:00,
2013-01-04 17:20:00,40.9,31.0,30.38,South,177,1.0,4.0,67,0.00,,,0.00,weatherlink.com 1.10,2013-01-05 00:20:00,
2013-01-04 17:35:00,40.7,31.0,30.38,SSW,192,1.0,5.0,68,0.00,,,0.00,weatherlink.com 1.10,2013-01-05 00:35:00,
2013-01-04 17:50:00,40.7,31.0,30.39,SSW,195,3.0,4.0,68,0.00,,,0.00,weatherlink.com 1.10,2013-01-05 00:50:00,
2013-01-04 18:05:00,40.5,31.0,30.38,SSW,195,3.0,4.0,69,0.00,,,0.00,weatherlink.com 1.10,2013-01-05 01:05:00,
2013-01-04 18:20:00,40.3,31.0,30.38,SSW,195,2.0,4.0,70,0.00,,,0.00,weatherlink.com 1.10,2013-01-05 01:20:00,
2013-01-04 18:35:00,39.9,31.0,30.38,SSW,193,0.0,3.0,70,0.00,,,0.00,weatherlink.com 1.10,2013-01-05 01:35:00,
2013-01-04 18:50:00,39.4,31.0,30.38,South,191,1.0,3.0,71,0.00,,,0.00,weatherlink.com 1.10,2013-01-05 01:50:00,
2013-01-04 19:05:00,39.0,31.0,30.38,South,185,2.0,4.0,72,0.00,,,0.00,weatherlink.com 1.10,2013-01-05 02:05:00,
2013-01-04 19:20:00,38.4,30.0,30.38,South,179,2.0,5.0,73,0.00,,,0.00,weatherlink.com 1.10,2013-01-05 02:20:00,
2013-01-04 19:35:00,37.9,30.0,30.38,South,186,4.0,6.0,74,0.00,,,0.00,weatherlink.com 1.10,2013-01-05 02:35:00,
2013-01-04 19:50:00,37.9,30.0,30.37,South,176,2.0,4.0,74,0.00,,,0.00,weatherlink.com 1.10,2013-01-05 02:50:00,
2013-01-04 20:05:00,37.3,30.0,30.37,South,183,2.0,4.0,75,0.00,,,0.00,weatherlink.com 1.10,2013-01-05 03:05:00,
2013-01-04 20:20:00,36.7,30.0,30.37,South,186,2.0,4.0,76,0.00,,,0.00,weatherlink.com 1.10,2013-01-05 03:20:00,
2013-01-04 20:35:00,35.9,29.0,30.36,South,191,2.0,5.0,77,0.00,,,0.00,weatherlink.com 1.10,2013-01-05 03:35:00,
2013-01-04 20:50:00,35.8,30.0,30.36,South,185,1.0,4.0,78,0.00,,,0.00,weatherlink.com 1.10,2013-01-05 03:50:00,
2013-01-04 21:05:00,35.6,29.0,30.36,South,187,2.0,5.0,78,0.00,,,0.00,weatherlink.com 1.10,2013-01-05 04:05:00,
2013-01-04 21:20:00,34.8,29.0,30.36,South,179,0.0,4.0,80,0.00,,,0.00,weatherlink.com 1.10,2013-01-05 04:20:00,
2013-01-04 21:35:00,34.7,29.0,30.36,South,181,3.0,5.0,81,0.00,,,0.00,weatherlink.com 1.10,2013-01-05 04:35:00,
2013-01-04 21:50:00,35.1,30.0,30.36,South,185,1.0,4.0,81,0.00,,,0.00,weatherlink.com 1.10,2013-01-05 04:50:00,
2013-01-04 22:05:00,36.3,31.0,30.36,SSW,193,4.0,7.0,80,0.00,,,0.00,weatherlink.com 1.10,2013-01-05 05:05:00,
2013-01-04 22:20:00,37.1,31.0,30.35,SSW,198,6.0,8.0,79,0.00,,,0.00,weatherlink.com 1.10,2013-01-05 05:20:00,
2013-01-04 22:35:00,37.4,31.0,30.34,SSW,193,4.0,9.0,78,0.00,,,0.00,weatherlink.com 1.10,2013-01-05 05:35:00,
2013-01-04 22:50:00,37.5,31.0,30.34,SSW,205,4.0,8.0,78,0.00,,,0.00,weatherlink.com 1.10,2013-01-05 05:50:00,
2013-01-04 23:05:00,37.5,31.0,30.33,South,182,5.0,8.0,78,0.00,,,0.00,weatherlink.com 1.10,2013-01-05 06:05:00,
2013-01-04 23:20:00,37.7,31.0,30.33,South,179,5.0,9.0,78,0.00,,,0.00,weatherlink.com 1.10,2013-01-05 06:20:00,
2013-01-04 23:35:00,38.1,32.0,30.33,SSW,196,6.0,11.0,77,0.00,,,0.00,weatherlink.com 1.10,2013-01-05 06:35:00,
2013-01-04 23:50:00,38.4,32.0,30.32,SSW,200,4.0,11.0,77,0.00,,,0.00,weatherlink.com 1.10,2013-01-05 06:50:00,